createdAt,value
2023-03-18T00:01:16.362Z,57.66
2023-03-18T00:03:43.497Z,57.68
2023-03-18T00:06:16.768Z,57.68
2023-03-18T00:08:45.423Z,57.82
2023-03-18T00:11:14.345Z,57.72
2023-03-18T00:13:42.463Z,57.78
2023-03-18T00:16:11.547Z,57.84
2023-03-18T00:18:39.556Z,57.88
2023-03-18T00:21:06.564Z,57.90
2023-03-18T00:23:34.372Z,57.96
2023-03-18T00:26:02.526Z,57.98
2023-03-18T00:28:31.499Z,57.94
2023-03-18T00:31:08.805Z,57.92
2023-03-18T00:33:38.121Z,57.94
2023-03-18T00:36:07.184Z,57.84
2023-03-18T00:38:35.684Z,57.89
2023-03-18T00:41:11.245Z,57.97
2023-03-18T00:43:47.083Z,58.02
2023-03-18T00:46:20.802Z,57.97
2023-03-18T00:48:48.180Z,58.03
2023-03-18T00:51:17.364Z,58.16
2023-03-18T00:53:47.359Z,58.01
2023-03-18T00:56:15.941Z,58.10
2023-03-18T00:58:42.853Z,58.13
2023-03-18T01:01:10.281Z,58.26
2023-03-18T01:03:37.175Z,58.29
2023-03-18T01:06:04.313Z,58.39
2023-03-18T01:08:31.999Z,58.48
2023-03-18T01:10:59.533Z,58.50
2023-03-18T01:13:26.314Z,58.55
2023-03-18T01:15:54.517Z,58.60
2023-03-18T01:18:21.941Z,58.54
2023-03-18T01:20:48.833Z,58.58
2023-03-18T01:23:16.496Z,58.49
2023-03-18T01:25:45.132Z,58.44
2023-03-18T01:28:14.893Z,58.43
2023-03-18T01:30:42.328Z,58.48
2023-03-18T01:33:09.959Z,58.46
2023-03-18T01:35:37.523Z,58.45
2023-03-18T01:38:05.996Z,58.33
2023-03-18T01:40:35.972Z,58.46
2023-03-18T01:43:25.231Z,58.56
2023-03-18T01:45:55.133Z,58.62
2023-03-18T01:48:28.620Z,58.58
2023-03-18T01:51:05.952Z,58.67
2023-03-18T01:53:41.993Z,58.82
2023-03-18T01:56:09.203Z,59.00
2023-03-18T01:58:43.271Z,58.89
2023-03-18T02:01:34.826Z,58.94
2023-03-18T02:04:06.305Z,59.00
2023-03-18T02:06:33.549Z,59.03
2023-03-18T02:09:01.621Z,59.10
2023-03-18T02:11:32.735Z,59.24
2023-03-18T02:14:01.198Z,59.21
2023-03-18T02:16:36.958Z,59.18
2023-03-18T02:19:26.335Z,59.31
2023-03-18T02:22:02.420Z,59.35
2023-03-18T02:24:32.629Z,59.26
2023-03-18T02:27:05.882Z,59.40
2023-03-18T02:29:40.374Z,59.62
2023-03-18T02:32:13.143Z,59.89
2023-03-18T02:34:42.219Z,59.90
2023-03-18T02:37:09.300Z,59.94
2023-03-18T02:39:37.218Z,60.15
2023-03-18T02:42:04.306Z,60.00
2023-03-18T02:44:31.773Z,59.90
2023-03-18T02:47:22.878Z,59.98
2023-03-18T02:49:50.126Z,60.08
2023-03-18T02:52:16.962Z,59.98
2023-03-18T02:54:44.104Z,60.12
2023-03-18T02:57:10.974Z,60.01
2023-03-18T02:59:38.936Z,59.99
2023-03-18T03:02:06.574Z,59.92
2023-03-18T03:04:33.511Z,59.88
2023-03-18T03:07:01.636Z,59.87
2023-03-18T03:09:42.293Z,59.98
2023-03-18T03:12:09.347Z,59.93
2023-03-18T03:14:40.790Z,59.91
2023-03-18T03:17:07.584Z,59.95
2023-03-18T03:19:34.322Z,60.03
2023-03-18T03:22:01.604Z,59.97
2023-03-18T03:24:28.543Z,60.04
2023-03-18T03:26:55.275Z,59.97
2023-03-18T03:29:22.048Z,60.03
2023-03-18T03:31:49.479Z,60.11
2023-03-18T03:34:16.220Z,60.02
2023-03-18T03:36:43.185Z,60.19
2023-03-18T03:39:10.756Z,60.18
2023-03-18T03:41:37.538Z,60.26
2023-03-18T03:44:04.883Z,60.12
2023-03-18T03:46:32.207Z,60.18
2023-03-18T03:48:59.488Z,60.28
2023-03-18T03:51:26.321Z,60.29
2023-03-18T03:53:53.252Z,60.39
2023-03-18T03:56:20.070Z,60.44
2023-03-18T03:58:46.962Z,60.40
2023-03-18T04:01:14.068Z,60.36
2023-03-18T04:03:41.587Z,60.35
2023-03-18T04:06:08.625Z,60.27
2023-03-18T04:08:38.120Z,60.28
2023-03-18T04:11:05.567Z,60.24
2023-03-18T04:13:32.548Z,60.38
2023-03-18T04:15:59.470Z,60.38
2023-03-18T04:18:26.820Z,60.31
2023-03-18T04:20:54.248Z,60.26
2023-03-18T04:23:35.733Z,60.22
2023-03-18T04:26:02.816Z,60.16
2023-03-18T04:28:30.293Z,60.21
2023-03-18T04:30:57.355Z,60.30
2023-03-18T04:33:24.548Z,60.37
2023-03-18T04:35:52.737Z,60.41
2023-03-18T04:38:20.575Z,60.45
2023-03-18T04:40:49.319Z,60.58
2023-03-18T04:43:17.310Z,60.58
2023-03-18T04:45:45.690Z,60.82
2023-03-18T04:48:12.859Z,60.71
2023-03-18T04:50:41.104Z,60.72
2023-03-18T04:53:10.389Z,60.50
2023-03-18T04:55:37.936Z,60.48
2023-03-18T04:58:06.794Z,60.36
2023-03-18T05:00:38.169Z,60.31
2023-03-18T05:03:31.183Z,60.20
2023-03-18T05:05:58.280Z,60.32
2023-03-18T05:08:31.964Z,60.26
2023-03-18T05:11:00.228Z,60.02
2023-03-18T05:13:27.573Z,59.96
2023-03-18T05:15:54.998Z,59.90
2023-03-18T05:18:21.951Z,59.72
2023-03-18T05:20:49.876Z,59.40
2023-03-18T05:23:17.573Z,59.14
2023-03-18T05:25:50.457Z,58.81
2023-03-18T05:28:18.381Z,57.99
2023-03-18T05:30:52.493Z,57.28
2023-03-18T05:33:21.457Z,56.95
2023-03-18T05:35:53.067Z,56.34
2023-03-18T05:38:23.022Z,55.84
2023-03-18T05:40:50.099Z,54.79
2023-03-18T05:43:21.917Z,53.55
2023-03-18T05:45:51.773Z,52.60
2023-03-18T05:48:21.775Z,51.27
2023-03-18T05:50:52.482Z,49.92
2023-03-18T05:53:22.549Z,48.89
2023-03-18T05:55:53.030Z,47.96
2023-03-18T05:58:21.114Z,46.96
2023-03-18T06:00:50.632Z,46.31
2023-03-18T06:03:18.343Z,45.46
2023-03-18T06:05:45.173Z,44.83
2023-03-18T06:08:12.889Z,44.08
2023-03-18T06:10:40.302Z,43.36
2023-03-18T06:13:07.856Z,43.11
2023-03-18T06:15:34.788Z,42.92
2023-03-18T06:18:01.848Z,42.87
2023-03-18T06:20:28.921Z,43.23
2023-03-18T06:22:55.721Z,43.34
2023-03-18T06:25:24.074Z,42.65
2023-03-18T06:27:52.282Z,42.55
2023-03-18T06:30:21.582Z,42.57
2023-03-18T06:32:49.014Z,43.13
2023-03-18T06:35:16.684Z,41.98
2023-03-18T06:37:43.835Z,41.13
2023-03-18T06:40:12.388Z,40.50
2023-03-18T06:42:41.254Z,39.71
2023-03-18T06:45:15.436Z,38.91
2023-03-18T06:47:56.664Z,38.23
2023-03-18T06:50:24.586Z,37.63
2023-03-18T06:52:51.466Z,37.10
2023-03-18T06:55:23.955Z,36.65
2023-03-18T06:57:51.415Z,36.00
2023-03-18T07:00:24.788Z,35.47
2023-03-18T07:02:52.524Z,34.38
2023-03-18T07:05:22.998Z,34.05
2023-03-18T07:07:50.938Z,33.62
2023-03-18T07:10:21.929Z,33.38
2023-03-18T07:12:50.558Z,32.89
2023-03-18T07:15:21.777Z,32.07
2023-03-18T07:17:50.616Z,31.58
2023-03-18T07:20:18.771Z,30.88
2023-03-18T07:22:47.285Z,30.42
2023-03-18T07:25:14.610Z,29.81
2023-03-18T07:27:42.443Z,28.97
2023-03-18T07:30:10.011Z,28.56
2023-03-18T07:32:38.622Z,28.35
2023-03-18T07:35:06.741Z,27.99
2023-03-18T07:37:35.140Z,27.34
2023-03-18T07:40:04.010Z,26.74
2023-03-18T07:42:30.861Z,26.26
2023-03-18T07:44:58.186Z,25.69
2023-03-18T07:47:25.117Z,25.38
2023-03-18T07:49:55.028Z,25.42
2023-03-18T07:52:22.067Z,25.37
2023-03-18T07:54:48.815Z,25.55
2023-03-18T07:57:15.680Z,25.34
2023-03-18T07:59:42.552Z,25.60
2023-03-18T08:02:14.479Z,25.20
2023-03-18T08:04:42.886Z,25.31
2023-03-18T08:07:10.848Z,25.81
2023-03-18T08:09:38.474Z,25.96
2023-03-18T08:12:05.635Z,25.96
2023-03-18T08:14:32.548Z,25.64
2023-03-18T08:16:59.362Z,26.41
2023-03-18T08:19:27.603Z,26.36
2023-03-18T08:21:55.372Z,26.77
2023-03-18T08:24:32.169Z,27.17
2023-03-18T08:27:23.091Z,27.39
2023-03-18T08:29:54.047Z,27.33
2023-03-18T08:32:26.102Z,27.67
2023-03-18T08:34:55.112Z,27.39
2023-03-18T08:37:22.713Z,27.14
2023-03-18T08:39:54.576Z,27.86
2023-03-18T08:42:21.905Z,28.72
2023-03-18T08:44:49.996Z,28.82
2023-03-18T08:47:16.874Z,28.56
2023-03-18T08:49:43.782Z,28.54
2023-03-18T08:52:10.696Z,28.72
2023-03-18T08:54:37.489Z,28.60
2023-03-18T08:57:04.570Z,28.60
2023-03-18T08:59:31.671Z,28.44
2023-03-18T09:02:16.496Z,28.25
2023-03-18T09:04:50.485Z,28.18
2023-03-18T09:07:19.285Z,28.29
2023-03-18T09:10:37.201Z,28.47
2023-03-18T09:13:05.594Z,28.48
2023-03-18T09:15:32.594Z,28.52
2023-03-18T09:18:10.779Z,28.66
2023-03-18T09:20:39.734Z,28.63
2023-03-18T09:23:08.018Z,28.59
2023-03-18T09:25:35.706Z,28.51
2023-03-18T09:28:06.594Z,28.09
2023-03-18T09:30:34.379Z,27.60
2023-03-18T09:33:02.058Z,27.67
2023-03-18T09:35:29.313Z,27.61
2023-03-18T09:37:56.505Z,27.53
2023-03-18T09:40:32.748Z,27.67
2023-03-18T09:42:59.475Z,27.68
2023-03-18T09:45:51.886Z,27.65
2023-03-18T09:48:53.930Z,27.58
2023-03-18T09:51:50.326Z,27.62
2023-03-18T09:54:33.241Z,27.50
2023-03-18T09:57:01.190Z,28.62
2023-03-18T09:59:40.528Z,29.17
2023-03-18T10:02:48.454Z,29.48
2023-03-18T10:05:19.880Z,29.41
2023-03-18T10:07:50.070Z,29.00
2023-03-18T10:10:42.427Z,28.72
2023-03-18T10:13:23.346Z,28.43
2023-03-18T10:15:56.852Z,28.52
2023-03-18T10:18:33.997Z,27.85
2023-03-18T10:21:21.986Z,27.65
2023-03-18T10:23:57.888Z,27.56
2023-03-18T10:26:30.749Z,27.95
2023-03-18T10:29:08.739Z,28.42
2023-03-18T10:32:03.780Z,27.61
2023-03-18T10:34:40.689Z,27.88
2023-03-18T10:37:13.055Z,28.37
2023-03-18T10:39:41.924Z,28.16
2023-03-18T10:42:30.622Z,28.00
2023-03-18T10:45:28.316Z,29.14
2023-03-18T10:48:06.239Z,28.59
2023-03-18T10:50:42.549Z,28.78
2023-03-18T10:53:23.457Z,29.21
2023-03-18T10:56:07.054Z,28.17
2023-03-18T10:58:34.608Z,28.03
2023-03-18T11:01:01.589Z,28.34
2023-03-18T11:03:33.137Z,28.26
2023-03-18T11:06:04.606Z,29.19
2023-03-18T11:08:40.172Z,30.18
2023-03-18T11:11:34.833Z,30.27
2023-03-18T11:14:07.121Z,30.14
2023-03-18T11:16:42.671Z,30.08
2023-03-18T11:19:33.507Z,30.28
2023-03-18T11:22:02.235Z,30.67
2023-03-18T11:24:45.001Z,30.06
2023-03-18T11:27:14.425Z,30.39
2023-03-18T11:29:46.794Z,30.43
2023-03-18T11:32:31.687Z,30.19
2023-03-18T11:35:03.765Z,29.78
2023-03-18T11:37:41.759Z,29.94
2023-03-18T11:40:14.615Z,30.12
2023-03-18T11:42:42.721Z,29.59
2023-03-18T11:45:21.611Z,29.71
2023-03-18T11:47:48.643Z,29.74
2023-03-18T11:50:25.735Z,29.97
2023-03-18T11:53:05.881Z,29.94
2023-03-18T11:55:45.788Z,29.81
2023-03-18T11:58:46.807Z,29.56
2023-03-18T12:01:21.919Z,29.67
2023-03-18T12:04:14.595Z,30.00
2023-03-18T12:06:50.145Z,29.96
2023-03-18T12:09:34.934Z,29.77
2023-03-18T12:12:28.368Z,29.70
2023-03-18T12:15:12.464Z,29.66
2023-03-18T12:18:06.778Z,29.88
2023-03-18T12:20:57.228Z,30.08
2023-03-18T12:24:01.583Z,30.04
2023-03-18T12:26:34.735Z,29.85
2023-03-18T12:29:07.546Z,29.89
2023-03-18T12:31:48.906Z,29.63
2023-03-18T12:34:54.180Z,30.08
2023-03-18T12:37:35.840Z,30.18
2023-03-18T12:40:34.421Z,30.37
2023-03-18T12:43:21.024Z,30.67
2023-03-18T12:45:53.668Z,30.64
2023-03-18T12:48:43.812Z,30.26
2023-03-18T12:51:21.604Z,30.37
2023-03-18T12:53:56.308Z,30.17
2023-03-18T12:56:27.696Z,30.07
2023-03-18T12:59:06.527Z,29.99
2023-03-18T13:01:47.764Z,29.96
2023-03-18T13:04:29.928Z,29.70
2023-03-18T13:07:03.507Z,29.93
2023-03-18T13:09:53.475Z,29.94
2023-03-18T13:12:20.480Z,30.20
2023-03-18T13:14:56.534Z,30.16
2023-03-18T13:17:40.196Z,30.15
2023-03-18T13:20:21.649Z,29.84
2023-03-18T13:23:04.082Z,29.87
2023-03-18T13:25:37.021Z,29.00
2023-03-18T13:28:29.387Z,29.35
2023-03-18T13:31:06.318Z,30.41
2023-03-18T13:33:47.612Z,30.25
2023-03-18T13:37:11.332Z,30.07
2023-03-18T13:40:05.864Z,30.10
2023-03-18T13:42:38.682Z,30.18
2023-03-18T13:45:30.587Z,30.14
2023-03-18T13:48:00.636Z,30.17
2023-03-18T13:50:34.156Z,30.19
2023-03-18T13:53:03.351Z,29.84
2023-03-18T13:55:47.603Z,29.60
2023-03-18T13:58:37.090Z,29.79
2023-03-18T14:01:32.863Z,29.70
2023-03-18T14:04:22.320Z,29.73
2023-03-18T14:06:56.928Z,29.95
2023-03-18T14:09:34.095Z,29.57
2023-03-18T14:12:25.134Z,29.60
2023-03-18T14:14:53.006Z,29.61
2023-03-18T14:17:32.310Z,29.61
2023-03-18T14:20:07.205Z,29.78
2023-03-18T14:22:36.791Z,29.24
2023-03-18T14:25:10.135Z,29.44
2023-03-18T14:27:47.447Z,29.50
2023-03-18T14:30:35.036Z,29.67
2023-03-18T14:33:06.187Z,29.63
2023-03-18T14:35:52.338Z,29.73
2023-03-18T14:38:35.119Z,29.89
2023-03-18T14:41:04.382Z,29.83
2023-03-18T14:44:06.606Z,29.91
2023-03-18T14:46:39.335Z,30.02
2023-03-18T14:49:32.503Z,30.34
2023-03-18T14:52:02.042Z,30.18
2023-03-18T14:54:35.908Z,29.51
2023-03-18T14:57:04.464Z,29.27
2023-03-18T14:59:31.699Z,29.46
2023-03-18T15:01:58.667Z,29.47
2023-03-18T15:04:28.121Z,29.26
2023-03-18T15:07:00.641Z,29.38
2023-03-18T15:09:30.071Z,29.84
2023-03-18T15:11:57.998Z,29.88
2023-03-18T15:14:27.806Z,30.11
2023-03-18T15:17:03.812Z,30.11
2023-03-18T15:19:32.631Z,30.23
2023-03-18T15:22:04.688Z,30.39
2023-03-18T15:24:32.851Z,30.11
2023-03-18T15:27:05.726Z,30.30
2023-03-18T15:29:37.401Z,30.27
2023-03-18T15:32:26.018Z,30.15
2023-03-18T15:35:11.998Z,30.23
2023-03-18T15:37:42.074Z,30.26
2023-03-18T15:40:24.098Z,30.25
2023-03-18T15:42:54.987Z,30.38
2023-03-18T15:45:27.369Z,30.29
2023-03-18T15:47:54.377Z,30.28
2023-03-18T15:50:33.956Z,30.43
2023-03-18T15:53:05.197Z,30.55
2023-03-18T15:55:47.493Z,30.57
2023-03-18T15:58:27.743Z,30.74
2023-03-18T16:00:56.592Z,30.69
2023-03-18T16:03:26.313Z,30.75
2023-03-18T16:05:53.765Z,30.80
2023-03-18T16:08:22.851Z,31.00
2023-03-18T16:10:52.704Z,30.91
2023-03-18T16:13:25.900Z,30.97
2023-03-18T16:15:54.026Z,31.13
2023-03-18T16:18:21.396Z,31.13
2023-03-18T16:20:49.427Z,31.14
2023-03-18T16:23:17.635Z,31.18
2023-03-18T16:25:52.970Z,31.27
2023-03-18T16:28:25.154Z,31.32
2023-03-18T16:30:53.556Z,31.62
2023-03-18T16:33:21.145Z,31.60
2023-03-18T16:35:54.723Z,31.72
2023-03-18T16:38:25.810Z,31.82
2023-03-18T16:40:54.833Z,31.88
2023-03-18T16:43:24.524Z,32.04
2023-03-18T16:45:52.554Z,32.07
2023-03-18T16:48:22.019Z,32.14
2023-03-18T16:50:51.323Z,32.31
2023-03-18T16:53:22.184Z,32.40
2023-03-18T16:55:52.762Z,32.55
2023-03-18T16:58:26.696Z,32.76
2023-03-18T17:00:55.862Z,32.81
2023-03-18T17:03:23.020Z,32.93
2023-03-18T17:05:50.753Z,33.08
2023-03-18T17:08:22.540Z,33.25
2023-03-18T17:10:52.576Z,33.18
2023-03-18T17:13:23.132Z,33.42
2023-03-18T17:15:51.231Z,33.56
2023-03-18T17:18:21.352Z,33.65
2023-03-18T17:20:49.010Z,33.85
2023-03-18T17:23:18.505Z,33.83
2023-03-18T17:25:52.375Z,34.00
2023-03-18T17:28:28.355Z,34.10
2023-03-18T17:30:56.480Z,34.18
2023-03-18T17:33:24.772Z,34.17
2023-03-18T17:35:52.469Z,34.22
2023-03-18T17:38:20.037Z,34.33
2023-03-18T17:40:48.277Z,34.55
2023-03-18T17:43:27.703Z,34.57
2023-03-18T17:45:56.878Z,34.64
2023-03-18T17:48:34.733Z,34.70
2023-03-18T17:51:06.940Z,34.86
2023-03-18T17:53:38.922Z,34.93
2023-03-18T17:56:09.865Z,35.09
2023-03-18T17:58:37.011Z,35.21
2023-03-18T18:01:14.004Z,35.38
2023-03-18T18:03:40.925Z,35.51
2023-03-18T18:06:15.563Z,35.47
2023-03-18T18:08:42.727Z,35.47
2023-03-18T18:11:23.962Z,35.61
2023-03-18T18:13:53.901Z,35.47
2023-03-18T18:16:21.653Z,35.52
2023-03-18T18:18:50.037Z,35.79
2023-03-18T18:21:23.731Z,36.10
2023-03-18T18:23:50.563Z,35.81
2023-03-18T18:26:19.916Z,35.69
2023-03-18T18:28:50.312Z,35.87
2023-03-18T18:31:19.505Z,35.91
2023-03-18T18:33:49.730Z,35.89
2023-03-18T18:36:18.035Z,35.86
2023-03-18T18:38:45.535Z,35.86
2023-03-18T18:41:12.640Z,35.95
2023-03-18T18:43:39.493Z,35.90
2023-03-18T18:46:13.928Z,36.10
2023-03-18T18:48:41.178Z,36.09
2023-03-18T18:51:15.899Z,36.13
2023-03-18T18:53:43.610Z,36.02
2023-03-18T18:56:18.618Z,36.15
2023-03-18T18:58:46.985Z,36.13
2023-03-18T19:01:14.995Z,36.26
2023-03-18T19:03:42.108Z,36.34
2023-03-18T19:06:25.655Z,36.29
2023-03-18T19:08:54.659Z,36.36
2023-03-18T19:11:21.473Z,36.34
2023-03-18T19:13:49.087Z,36.42
2023-03-18T19:16:36.584Z,36.85
2023-03-18T19:19:03.389Z,36.98
2023-03-18T19:21:30.144Z,37.00
2023-03-18T19:23:58.323Z,37.07
2023-03-18T19:26:26.049Z,37.07
2023-03-18T19:28:59.235Z,37.05
2023-03-18T19:31:30.755Z,37.10
2023-03-18T19:33:59.923Z,37.13
2023-03-18T19:36:41.001Z,37.12
2023-03-18T19:39:14.711Z,37.52
2023-03-18T19:41:42.229Z,37.46
2023-03-18T19:44:23.136Z,37.54
2023-03-18T19:46:53.151Z,37.53
2023-03-18T19:49:30.012Z,37.65
2023-03-18T19:51:57.159Z,37.80
2023-03-18T19:54:28.438Z,37.80
2023-03-18T19:56:57.517Z,37.82
2023-03-18T19:59:33.569Z,37.85
2023-03-18T20:02:05.100Z,37.92
2023-03-18T20:04:32.007Z,38.15
2023-03-18T20:06:58.807Z,38.35
2023-03-18T20:09:25.698Z,38.53
2023-03-18T20:12:04.406Z,38.72
2023-03-18T20:14:38.294Z,38.88
2023-03-18T20:17:23.448Z,38.85
2023-03-18T20:19:50.484Z,39.16
2023-03-18T20:22:27.089Z,39.39
2023-03-18T20:24:54.591Z,39.44
2023-03-18T20:27:22.272Z,39.55
2023-03-18T20:29:49.248Z,39.78
2023-03-18T20:32:16.048Z,40.04
2023-03-18T20:34:43.976Z,39.97
2023-03-18T20:37:18.538Z,39.86
2023-03-18T20:39:45.922Z,40.15
2023-03-18T20:42:17.400Z,40.40
2023-03-18T20:44:45.426Z,40.52
2023-03-18T20:47:13.604Z,40.66
2023-03-18T20:49:41.316Z,40.74
2023-03-18T20:52:29.448Z,41.09
2023-03-18T20:54:57.083Z,40.92
2023-03-18T20:57:24.525Z,41.05
2023-03-18T20:59:51.749Z,40.88
2023-03-18T21:02:32.815Z,40.94
2023-03-18T21:05:01.637Z,40.80
2023-03-18T21:07:28.990Z,41.03
2023-03-18T21:09:56.112Z,41.50
2023-03-18T21:12:24.120Z,41.36
2023-03-18T21:14:51.200Z,41.74
2023-03-18T21:17:20.557Z,41.90
2023-03-18T21:19:48.812Z,41.72
2023-03-18T21:22:21.565Z,42.04
2023-03-18T21:24:49.420Z,42.48
2023-03-18T21:27:24.997Z,42.71
2023-03-18T21:29:53.000Z,42.95
2023-03-18T21:32:27.236Z,42.98
2023-03-18T21:34:54.867Z,43.38
2023-03-18T21:37:23.889Z,43.70
2023-03-18T21:39:51.608Z,43.74
2023-03-18T21:42:32.780Z,43.82
2023-03-18T21:44:59.875Z,43.89
2023-03-18T21:47:27.386Z,44.09
2023-03-18T21:49:54.149Z,44.11
2023-03-18T21:52:34.956Z,44.27
2023-03-18T21:55:04.185Z,44.39
2023-03-18T21:57:31.061Z,44.59
2023-03-18T21:59:57.913Z,44.60
2023-03-18T22:02:27.652Z,44.87
2023-03-18T22:04:58.998Z,44.96
2023-03-18T22:07:30.352Z,45.14
2023-03-18T22:09:57.998Z,45.30
2023-03-18T22:12:27.329Z,45.38
2023-03-18T22:14:55.201Z,45.44
2023-03-18T22:17:27.725Z,45.73
2023-03-18T22:19:55.575Z,45.72
2023-03-18T22:22:25.691Z,45.81
2023-03-18T22:24:52.844Z,45.86
2023-03-18T22:27:27.752Z,46.05
2023-03-18T22:29:56.631Z,46.07
2023-03-18T22:32:35.442Z,46.05
2023-03-18T22:35:03.440Z,45.99
2023-03-18T22:37:30.278Z,46.11
2023-03-18T22:39:59.211Z,46.24
2023-03-18T22:42:27.976Z,46.36
2023-03-18T22:44:54.813Z,46.33
2023-03-18T22:47:23.985Z,46.66
2023-03-18T22:49:51.211Z,46.69
2023-03-18T22:52:22.800Z,46.89
2023-03-18T22:54:56.174Z,46.93
2023-03-18T22:57:26.565Z,47.01
2023-03-18T22:59:54.490Z,47.09
2023-03-18T23:02:25.332Z,47.03
2023-03-18T23:04:52.939Z,47.06
2023-03-18T23:07:29.439Z,47.13
2023-03-18T23:09:58.186Z,47.12
2023-03-18T23:12:26.921Z,47.30
2023-03-18T23:14:54.469Z,47.41
2023-03-18T23:17:24.547Z,47.71
2023-03-18T23:19:53.305Z,47.90
2023-03-18T23:22:26.284Z,47.97
2023-03-18T23:24:53.131Z,47.92
2023-03-18T23:27:21.187Z,48.04
2023-03-18T23:29:48.811Z,48.17
2023-03-18T23:32:16.989Z,48.14
2023-03-18T23:34:44.811Z,48.35
2023-03-18T23:37:12.245Z,48.22
2023-03-18T23:39:43.313Z,48.25
2023-03-18T23:42:11.733Z,48.36
2023-03-18T23:44:39.133Z,48.41
2023-03-18T23:47:07.503Z,48.49
2023-03-18T23:49:34.596Z,48.53
2023-03-18T23:52:04.289Z,48.62
2023-03-18T23:54:31.488Z,48.63
2023-03-18T23:56:58.265Z,48.78
2023-03-18T23:59:25.056Z,48.76
